Gurli — SLEG — position and weather

sailwx.info

Track history (hours):
 
Tides and Currents Weather Stations Pressure Air Temp Water Temp Dewpoint Dewpoint Depression Visibility Wind Speed Wind Dir Waves Ship Positions

Gurli

Last reported at 2015-Jan-26 08:29 UTC. Time now 2015-Feb-01 07:15 UTC.
Position N 59°20' E 018°05'.

Length 21 m.

Type: Passenger vessel. MMSI: 265687640.

Date/timePositionNaut miles runAvg speedWind from/ knotsBaromVisibWave heightAir tempDewpointWater temp
2015-Jan-26 08:29N 59°20' E 018°05'0 0.0
2015-Jan-26 07:32N 59°20' E 018°05'0 0.0
2015-Jan-26 06:32N 59°20' E 018°05'0 0.0
2015-Jan-26 05:32N 59°20' E 018°05'0 0.0
2015-Jan-26 04:32N 59°20' E 018°05'0 0.0
2015-Jan-26 03:32N 59°20' E 018°05'0 0.0
2015-Jan-26 02:32N 59°20' E 018°05'0 0.0
2015-Jan-26 01:33N 59°20' E 018°05'0 0.0
2015-Jan-26 00:33N 59°20' E 018°05'0 0.0
2015-Jan-25 23:33N 59°20' E 018°05'0 0.0
2015-Jan-25 22:33N 59°20' E 018°05'0 0.0
2015-Jan-25 21:33N 59°20' E 018°05'0 0.0
2015-Jan-25 20:30N 59°20' E 018°05'0 0.0
2015-Jan-25 18:24N 59°20' E 018°05'0 0.0
2015-Jan-25 17:30N 59°20' E 018°05'0 0.0
2015-Jan-25 16:24N 59°20' E 018°05'0 0.0
2015-Jan-25 15:18N 59°20' E 018°05'0 0.0
2015-Jan-25 13:21N 59°20' E 018°05'0 0.0
2015-Jan-25 12:33N 59°20' E 018°05'0 0.0
2015-Jan-25 11:24N 59°20' E 018°05'0 0.0
2015-Jan-25 10:30N 59°20' E 018°05'0 0.0
2015-Jan-25 09:24N 59°20' E 018°05'0 0.0
2015-Jan-25 07:21N 59°20' E 018°05'0 0.0
2015-Jan-25 06:33N 59°20' E 018°05'0 0.0
2015-Jan-25 05:33N 59°20' E 018°05'0 0.0
2015-Jan-25 04:33N 59°20' E 018°05'0 0.0
2015-Jan-25 03:33N 59°20' E 018°05'0 0.0
2015-Jan-25 02:33N 59°20' E 018°05'0 0.0
2015-Jan-25 01:30N 59°20' E 018°05'0 0.0
2015-Jan-25 00:33N 59°20' E 018°05'0 0.0
2015-Jan-24 23:33N 59°20' E 018°05'0 0.0
2015-Jan-24 22:33N 59°20' E 018°05'0 0.0
2015-Jan-24 21:33N 59°20' E 018°05'0 0.1
2015-Jan-24 20:31N 59°20' E 018°05'2 1.8
2015-Jan-24 19:31N 59°19' E 018°08'0 0.0
2015-Jan-24 18:31N 59°19' E 018°08'1 0.9
2015-Jan-24 17:31N 59°20' E 018°10'2 2.5
2015-Jan-24 16:33N 59°20' E 018°05'2 2.3
2015-Jan-24 15:31N 59°20' E 018°09'2 2.6
2015-Jan-24 14:33N 59°20' E 018°05'2 2.4
2015-Jan-24 13:33N 59°21' E 018°09'2 2.4
2015-Jan-24 12:33N 59°20' E 018°05'2 1.6
2015-Jan-24 11:33N 59°19' E 018°07'1 1.0
2015-Jan-24 10:33N 59°19' E 018°09'1 1.0
2015-Jan-24 09:33N 59°19' E 018°07'1 0.7
2015-Jan-24 08:30N 59°19' E 018°09'2 2.2
2015-Jan-24 07:31N 59°20' E 018°05'0 0.0
2015-Jan-24 06:31N 59°20' E 018°05'0 0.0
2015-Jan-24 05:31N 59°20' E 018°05'0 0.0
2015-Jan-24 04:31N 59°20' E 018°05'0 0.0
2015-Jan-24 03:31N 59°20' E 018°05'0 0.0
2015-Jan-24 02:31N 59°20' E 018°05'0 0.0
2015-Jan-24 01:31N 59°20' E 018°05'0 0.0
2015-Jan-24 00:31N 59°20' E 018°05'0 0.0
2015-Jan-23 23:33N 59°20' E 018°05'0 0.0
2015-Jan-23 22:33N 59°20' E 018°05'0 0.0
2015-Jan-23 21:30N 59°20' E 018°05'0 0.0
2015-Jan-23 20:33N 59°20' E 018°05'0 0.0
2015-Jan-23 19:33N 59°20' E 018°05'3 2.6
2015-Jan-23 18:31N 59°19' E 018°10'1 0.6
2015-Jan-23 17:32N 59°19' E 018°08'0 0.1
2015-Jan-23 16:33N 59°19' E 018°08'0 0.5
2015-Jan-23 15:31N 59°19' E 018°09'1 1.0
2015-Jan-23 14:33N 59°19' E 018°07'1 1.0
2015-Jan-23 13:31N 59°19' E 018°10'1 1.1
2015-Jan-23 12:33N 59°19' E 018°07'1 1.1
2015-Jan-23 11:32N 59°19' E 018°10'1 1.1
2015-Jan-23 10:33N 59°19' E 018°07'1 1.0
2015-Jan-23 09:30N 59°19' E 018°10'1 1.0
2015-Jan-23 08:33N 59°19' E 018°08'1 0.7
2015-Jan-23 07:28N 59°19' E 018°09'1 1.0
2015-Jan-23 06:33N 59°19' E 018°07'1 1.1
2015-Jan-23 05:33N 59°19' E 018°10'3 2.5
2015-Jan-23 04:32N 59°20' E 018°05'0 0.0
2015-Jan-23 03:33N 59°20' E 018°05'0 0.0
2015-Jan-23 02:32N 59°20' E 018°05'0 0.0
2015-Jan-23 01:23N 59°20' E 018°05'0 0.0
2015-Jan-23 00:32N 59°20' E 018°05'0 0.0
2015-Jan-22 23:32N 59°20' E 018°05'0 0.0
2015-Jan-22 22:32N 59°20' E 018°05'0 0.0
2015-Jan-22 21:32N 59°20' E 018°05'0 0.0
2015-Jan-22 20:32N 59°20' E 018°05'0 0.0
2015-Jan-22 19:32N 59°20' E 018°05'3 2.7
2015-Jan-22 18:33N 59°19' E 018°10'1 0.6
2015-Jan-22 17:33N 59°19' E 018°08'0 0.2
2015-Jan-22 16:33N 59°19' E 018°08'1 0.6
2015-Jan-22 15:33N 59°19' E 018°09'1 1.0
2015-Jan-22 14:33N 59°19' E 018°07'1 0.9
2015-Jan-22 13:28N 59°19' E 018°09'1 1.0
2015-Jan-22 12:33N 59°19' E 018°07'1 1.1
2015-Jan-22 11:31N 59°19' E 018°10'1 1.1
2015-Jan-22 10:33N 59°19' E 018°07'1 1.0
2015-Jan-22 09:31N 59°19' E 018°10'1 0.9
2015-Jan-22 08:33N 59°19' E 018°08'1 0.7
2015-Jan-22 07:29N 59°19' E 018°09'1 1.0
2015-Jan-22 06:33N 59°19' E 018°07'1 1.0
2015-Jan-22 05:31N 59°19' E 018°10'3 2.6
2015-Jan-22 04:31N 59°20' E 018°05'0 0.0
2015-Jan-22 03:31N 59°20' E 018°05'0 0.0
2015-Jan-22 02:31N 59°20' E 018°05'0 0.0
2015-Jan-22 01:31N 59°20' E 018°05'0 0.0
2015-Jan-22 00:31N 59°20' E 018°05'0 0.0
2015-Jan-21 23:31N 59°20' E 018°05'0 0.0
2015-Jan-21 22:49N 59°20' E 018°05'0 0.1
2015-Jan-21 22:46N 59°20' E 018°05'0 0.0
2015-Jan-21 22:31N 59°20' E 018°05'0 0.0
2015-Jan-21 21:31N 59°20' E 018°05'0 0.0
2015-Jan-21 20:31N 59°20' E 018°05'0 0.0
2015-Jan-21 19:31N 59°20' E 018°05'3 2.5
2015-Jan-21 18:28N 59°19' E 018°10'1 0.8
2015-Jan-21 17:33N 59°19' E 018°08'0 0.3
2015-Jan-21 16:33N 59°19' E 018°09'0 0.2
2015-Jan-21 15:33N 59°19' E 018°09'1 0.6
2015-Jan-21 14:33N 59°19' E 018°08'1 0.9
2015-Jan-21 13:31N 59°19' E 018°10'1 1.1
2015-Jan-21 12:33N 59°19' E 018°08'1 1.1
2015-Jan-21 11:33N 59°19' E 018°10'1 1.1
2015-Jan-21 10:33N 59°19' E 018°07'1 1.0
2015-Jan-21 09:30N 59°19' E 018°10'1 1.0
2015-Jan-21 08:33N 59°19' E 018°08'1 0.9
2015-Jan-21 07:32N 59°19' E 018°10'1 0.9
2015-Jan-21 06:31N 59°19' E 018°08'1 1.0
2015-Jan-21 05:33N 59°19' E 018°10'3 2.3
2015-Jan-21 04:28N 59°20' E 018°05'0 0.0
2015-Jan-21 03:31N 59°20' E 018°05'0 0.0
2015-Jan-21 02:33N 59°20' E 018°05'0 0.0
2015-Jan-21 01:33N 59°20' E 018°05'0 0.0
2015-Jan-21 00:33N 59°20' E 018°05'0 0.0
2015-Jan-20 23:31N 59°20' E 018°05'0 0.0
2015-Jan-20 22:31N 59°20' E 018°05'0 0.0
2015-Jan-20 21:31N 59°20' E 018°05'0 0.0
2015-Jan-20 20:31N 59°20' E 018°05'0 0.0
2015-Jan-20 19:31N 59°20' E 018°05'3 2.7
2015-Jan-20 18:33N 59°19' E 018°10'1 0.8
2015-Jan-20 17:33N 59°19' E 018°08'0 0.4
2015-Jan-20 16:33N 59°19' E 018°09'0 0.2
2015-Jan-20 15:31N 59°19' E 018°09'1 0.6
2015-Jan-20 14:33N 59°19' E 018°07'1 0.9
2015-Jan-20 13:32N 59°19' E 018°09'1 1.0
2015-Jan-20 12:33N 59°19' E 018°07'1 0.8
2015-Jan-20 11:29N 59°19' E 018°09'1 0.9
2015-Jan-20 10:33N 59°19' E 018°08'1 1.0
2015-Jan-20 09:33N 59°19' E 018°10'1 0.8
2015-Jan-20 08:33N 59°19' E 018°08'1 0.8
2015-Jan-20 07:30N 59°19' E 018°10'1 1.1
2015-Jan-20 06:33N 59°19' E 018°07'1 1.0
2015-Jan-20 05:31N 59°19' E 018°10'3 2.6
2015-Jan-20 04:31N 59°20' E 018°05'0 0.0
2015-Jan-20 03:25N 59°20' E 018°05'0 0.0
2015-Jan-20 02:19N 59°20' E 018°05'0 0.0
2015-Jan-20 01:22N 59°20' E 018°05'0 0.0
2015-Jan-20 00:28N 59°20' E 018°05'0 0.0
2015-Jan-19 23:31N 59°20' E 018°05'0 0.0
2015-Jan-19 22:31N 59°20' E 018°05'0 0.0
2015-Jan-19 21:31N 59°20' E 018°05'0 0.0
2015-Jan-19 20:31N 59°20' E 018°05'0 0.0
2015-Jan-19 19:31N 59°20' E 018°05'3 2.6
2015-Jan-19 18:31N 59°19' E 018°10'1 0.7
2015-Jan-19 17:33N 59°19' E 018°08'0 0.3
2015-Jan-19 16:33N 59°19' E 018°09'0 0.2
2015-Jan-19 15:33N 59°19' E 018°09'1 0.8
2015-Jan-19 14:33N 59°19' E 018°07'1 0.8
2015-Jan-19 13:31N 59°19' E 018°09'2 2.4
2015-Jan-19 12:31N 59°20' E 018°05'1 1.3
2015-Jan-19 11:27N 59°19' E 018°06'1 0.8
2015-Jan-19 10:33N 59°19' E 018°07'1 1.1
2015-Jan-19 09:33N 59°19' E 018°10'1 0.9
2015-Jan-19 08:34N 59°19' E 018°08'1 0.9
2015-Jan-19 07:33N 59°19' E 018°10'1 1.1
2015-Jan-19 06:33N 59°19' E 018°07'1 1.1
2015-Jan-19 05:33N 59°19' E 018°10'3 2.5
2015-Jan-19 04:33N 59°20' E 018°05'0 0.0
2015-Jan-19 03:33N 59°20' E 018°05'0 0.0
2015-Jan-19 02:33N 59°20' E 018°05'0 0.0
2015-Jan-19 01:33N 59°20' E 018°05'0 0.0
2015-Jan-19 00:33N 59°20' E 018°05'0 0.0
2015-Jan-18 23:33N 59°20' E 018°05'0 0.0
2015-Jan-18 22:33N 59°20' E 018°05'0 0.0
2015-Jan-18 21:33N 59°20' E 018°05'0 0.0
2015-Jan-18 20:33N 59°20' E 018°05'0 0.0
2015-Jan-18 19:33N 59°20' E 018°05'0 0.0
2015-Jan-18 18:33N 59°20' E 018°05'2 2.4
2015-Jan-18 17:33N 59°20' E 018°09'2 2.4
2015-Jan-18 16:32N 59°20' E 018°05'2 2.4
2015-Jan-18 15:32N 59°20' E 018°09'2 2.5
2015-Jan-18 14:33N 59°20' E 018°05'2 2.5
2015-Jan-18 13:33N 59°21' E 018°09'2 2.3
2015-Jan-18 12:31N 59°20' E 018°05'2 1.6
2015-Jan-18 11:33N 59°19' E 018°07'1 1.0
2015-Jan-18 10:31N 59°19' E 018°09'1 1.2
2015-Jan-18 09:33N 59°19' E 018°07'1 1.1
2015-Jan-18 08:32N 59°19' E 018°09'2 2.4
2015-Jan-18 07:33N 59°20' E 018°05'0 0.0
2015-Jan-18 06:33N 59°20' E 018°05'0 0.0
2015-Jan-18 05:33N 59°20' E 018°05'0 0.0
2015-Jan-18 04:33N 59°20' E 018°05'0 0.0
2015-Jan-18 03:33N 59°20' E 018°05'0 0.0
2015-Jan-18 02:25N 59°20' E 018°05'0 0.0
2015-Jan-18 01:31N 59°20' E 018°05'0 0.0
2015-Jan-18 00:31N 59°20' E 018°05'0 0.0
2015-Jan-17 23:31N 59°20' E 018°05'0 0.0
2015-Jan-17 22:31N 59°20' E 018°05'0 0.0
2015-Jan-17 21:31N 59°20' E 018°05'0 0.0
2015-Jan-17 20:31N 59°20' E 018°05'0 0.0
2015-Jan-17 19:31N 59°20' E 018°05'0 0.0
2015-Jan-17 18:33N 59°20' E 018°05'2 2.4
2015-Jan-17 17:33N 59°20' E 018°09'2 2.4
2015-Jan-17 16:34N 59°20' E 018°05'2 2.3
2015-Jan-17 15:32N 59°20' E 018°09'2 2.5
2015-Jan-17 14:33N 59°20' E 018°05'2 2.4
2015-Jan-17 13:33N 59°21' E 018°09'2 2.3
2015-Jan-17 12:32N 59°20' E 018°05'2 1.6
2015-Jan-17 11:33N 59°19' E 018°07'1 1.1
2015-Jan-17 10:33N 59°19' E 018°09'1 1.0
2015-Jan-17 09:33N 59°19' E 018°07'1 0.9
2015-Jan-17 08:32N 59°19' E 018°09'2 2.3
2015-Jan-17 07:31N 59°20' E 018°05'0 0.0
2015-Jan-17 04:31N 59°20' E 018°05'0 0.0
2015-Jan-17 03:28N 59°20' E 018°05'0 0.0
2015-Jan-17 02:32N 59°20' E 018°05'0 0.0
2015-Jan-17 01:31N 59°20' E 018°05'0 0.0
2015-Jan-17 00:32N 59°20' E 018°05'0 0.0
2015-Jan-16 23:32N 59°20' E 018°05'0 0.0
2015-Jan-16 22:32N 59°20' E 018°05'0 0.0
2015-Jan-16 21:32N 59°20' E 018°05'0 0.0
2015-Jan-16 20:32N 59°20' E 018°05'0 0.0
2015-Jan-16 19:32N 59°20' E 018°05'2 1.9
2015-Jan-16 18:17N 59°21' E 018°09'1 1.9
2015-Jan-16 17:33N 59°19' E 018°09'0 0.1
2015-Jan-16 16:33N 59°19' E 018°09'0 0.4
2015-Jan-16 15:33N 59°19' E 018°09'1 1.0
2015-Jan-16 14:33N 59°19' E 018°07'1 1.1
2015-Jan-16 13:32N 59°19' E 018°10'1 1.1
2015-Jan-16 12:33N 59°19' E 018°07'1 0.9
2015-Jan-16 11:29N 59°19' E 018°09'1 1.0
2015-Jan-16 10:34N 59°19' E 018°07'1 0.8
2015-Jan-16 09:29N 59°19' E 018°09'1 0.7
2015-Jan-16 08:33N 59°19' E 018°08'  
Track history (hours):
 
Tides and Currents Weather Stations Pressure Air Temp Water Temp Dewpoint Dewpoint Depression Visibility Wind Speed Wind Dir Waves Ship Positions

Gurli

Last reported at 2015-Jan-26 08:29 UTC. Time now 2015-Feb-01 07:15 UTC.
Position N 59°20' E 018°05'.

Length 21 m.

Type: Passenger vessel. MMSI: 265687640.

Date/timePositionNaut miles runAvg speedWind from/ knotsBaromVisibWave heightAir tempDewpointWater temp
2015-Jan-26 08:29N 59°20' E 018°05'0 0.0
2015-Jan-26 07:32N 59°20' E 018°05'0 0.0
2015-Jan-26 06:32N 59°20' E 018°05'0 0.0
2015-Jan-26 05:32N 59°20' E 018°05'0 0.0
2015-Jan-26 04:32N 59°20' E 018°05'0 0.0
2015-Jan-26 03:32N 59°20' E 018°05'0 0.0
2015-Jan-26 02:32N 59°20' E 018°05'0 0.0
2015-Jan-26 01:33N 59°20' E 018°05'0 0.0
2015-Jan-26 00:33N 59°20' E 018°05'0 0.0
2015-Jan-25 23:33N 59°20' E 018°05'0 0.0
2015-Jan-25 22:33N 59°20' E 018°05'0 0.0
2015-Jan-25 21:33N 59°20' E 018°05'0 0.0
2015-Jan-25 20:30N 59°20' E 018°05'0 0.0
2015-Jan-25 18:24N 59°20' E 018°05'0 0.0
2015-Jan-25 17:30N 59°20' E 018°05'0 0.0
2015-Jan-25 16:24N 59°20' E 018°05'0 0.0
2015-Jan-25 15:18N 59°20' E 018°05'0 0.0
2015-Jan-25 13:21N 59°20' E 018°05'0 0.0
2015-Jan-25 12:33N 59°20' E 018°05'0 0.0
2015-Jan-25 11:24N 59°20' E 018°05'0 0.0
2015-Jan-25 10:30N 59°20' E 018°05'0 0.0
2015-Jan-25 09:24N 59°20' E 018°05'0 0.0
2015-Jan-25 07:21N 59°20' E 018°05'0 0.0
2015-Jan-25 06:33N 59°20' E 018°05'0 0.0
2015-Jan-25 05:33N 59°20' E 018°05'0 0.0
2015-Jan-25 04:33N 59°20' E 018°05'0 0.0
2015-Jan-25 03:33N 59°20' E 018°05'0 0.0
2015-Jan-25 02:33N 59°20' E 018°05'0 0.0
2015-Jan-25 01:30N 59°20' E 018°05'0 0.0
2015-Jan-25 00:33N 59°20' E 018°05'0 0.0
2015-Jan-24 23:33N 59°20' E 018°05'0 0.0
2015-Jan-24 22:33N 59°20' E 018°05'0 0.0
2015-Jan-24 21:33N 59°20' E 018°05'0 0.1
2015-Jan-24 20:31N 59°20' E 018°05'2 1.8
2015-Jan-24 19:31N 59°19' E 018°08'0 0.0
2015-Jan-24 18:31N 59°19' E 018°08'1 0.9
2015-Jan-24 17:31N 59°20' E 018°10'2 2.5
2015-Jan-24 16:33N 59°20' E 018°05'2 2.3
2015-Jan-24 15:31N 59°20' E 018°09'2 2.6
2015-Jan-24 14:33N 59°20' E 018°05'2 2.4
2015-Jan-24 13:33N 59°21' E 018°09'2 2.4
2015-Jan-24 12:33N 59°20' E 018°05'2 1.6
2015-Jan-24 11:33N 59°19' E 018°07'1 1.0
2015-Jan-24 10:33N 59°19' E 018°09'1 1.0
2015-Jan-24 09:33N 59°19' E 018°07'1 0.7
2015-Jan-24 08:30N 59°19' E 018°09'2 2.2
2015-Jan-24 07:31N 59°20' E 018°05'0 0.0
2015-Jan-24 06:31N 59°20' E 018°05'0 0.0
2015-Jan-24 05:31N 59°20' E 018°05'0 0.0
2015-Jan-24 04:31N 59°20' E 018°05'0 0.0
2015-Jan-24 03:31N 59°20' E 018°05'0 0.0
2015-Jan-24 02:31N 59°20' E 018°05'0 0.0
2015-Jan-24 01:31N 59°20' E 018°05'0 0.0
2015-Jan-24 00:31N 59°20' E 018°05'0 0.0
2015-Jan-23 23:33N 59°20' E 018°05'0 0.0
2015-Jan-23 22:33N 59°20' E 018°05'0 0.0
2015-Jan-23 21:30N 59°20' E 018°05'0 0.0
2015-Jan-23 20:33N 59°20' E 018°05'0 0.0
2015-Jan-23 19:33N 59°20' E 018°05'3 2.6
2015-Jan-23 18:31N 59°19' E 018°10'1 0.6
2015-Jan-23 17:32N 59°19' E 018°08'0 0.1
2015-Jan-23 16:33N 59°19' E 018°08'0 0.5
2015-Jan-23 15:31N 59°19' E 018°09'1 1.0
2015-Jan-23 14:33N 59°19' E 018°07'1 1.0
2015-Jan-23 13:31N 59°19' E 018°10'1 1.1
2015-Jan-23 12:33N 59°19' E 018°07'1 1.1
2015-Jan-23 11:32N 59°19' E 018°10'1 1.1
2015-Jan-23 10:33N 59°19' E 018°07'1 1.0
2015-Jan-23 09:30N 59°19' E 018°10'1 1.0
2015-Jan-23 08:33N 59°19' E 018°08'1 0.7
2015-Jan-23 07:28N 59°19' E 018°09'1 1.0
2015-Jan-23 06:33N 59°19' E 018°07'1 1.1
2015-Jan-23 05:33N 59°19' E 018°10'3 2.5
2015-Jan-23 04:32N 59°20' E 018°05'0 0.0
2015-Jan-23 03:33N 59°20' E 018°05'0 0.0
2015-Jan-23 02:32N 59°20' E 018°05'0 0.0
2015-Jan-23 01:23N 59°20' E 018°05'0 0.0
2015-Jan-23 00:32N 59°20' E 018°05'0 0.0
2015-Jan-22 23:32N 59°20' E 018°05'0 0.0
2015-Jan-22 22:32N 59°20' E 018°05'0 0.0
2015-Jan-22 21:32N 59°20' E 018°05'0 0.0
2015-Jan-22 20:32N 59°20' E 018°05'0 0.0
2015-Jan-22 19:32N 59°20' E 018°05'3 2.7
2015-Jan-22 18:33N 59°19' E 018°10'1 0.6
2015-Jan-22 17:33N 59°19' E 018°08'0 0.2
2015-Jan-22 16:33N 59°19' E 018°08'1 0.6
2015-Jan-22 15:33N 59°19' E 018°09'1 1.0
2015-Jan-22 14:33N 59°19' E 018°07'1 0.9
2015-Jan-22 13:28N 59°19' E 018°09'1 1.0
2015-Jan-22 12:33N 59°19' E 018°07'1 1.1
2015-Jan-22 11:31N 59°19' E 018°10'1 1.1
2015-Jan-22 10:33N 59°19' E 018°07'1 1.0
2015-Jan-22 09:31N 59°19' E 018°10'1 0.9
2015-Jan-22 08:33N 59°19' E 018°08'1 0.7
2015-Jan-22 07:29N 59°19' E 018°09'1 1.0
2015-Jan-22 06:33N 59°19' E 018°07'1 1.0
2015-Jan-22 05:31N 59°19' E 018°10'3 2.6
2015-Jan-22 04:31N 59°20' E 018°05'0 0.0
2015-Jan-22 03:31N 59°20' E 018°05'0 0.0
2015-Jan-22 02:31N 59°20' E 018°05'0 0.0
2015-Jan-22 01:31N 59°20' E 018°05'0 0.0
2015-Jan-22 00:31N 59°20' E 018°05'0 0.0
2015-Jan-21 23:31N 59°20' E 018°05'0 0.0
2015-Jan-21 22:49N 59°20' E 018°05'0 0.1
2015-Jan-21 22:46N 59°20' E 018°05'0 0.0
2015-Jan-21 22:31N 59°20' E 018°05'0 0.0
2015-Jan-21 21:31N 59°20' E 018°05'0 0.0
2015-Jan-21 20:31N 59°20' E 018°05'0 0.0
2015-Jan-21 19:31N 59°20' E 018°05'3 2.5
2015-Jan-21 18:28N 59°19' E 018°10'1 0.8
2015-Jan-21 17:33N 59°19' E 018°08'0 0.3
2015-Jan-21 16:33N 59°19' E 018°09'0 0.2
2015-Jan-21 15:33N 59°19' E 018°09'1 0.6
2015-Jan-21 14:33N 59°19' E 018°08'1 0.9
2015-Jan-21 13:31N 59°19' E 018°10'1 1.1
2015-Jan-21 12:33N 59°19' E 018°08'1 1.1
2015-Jan-21 11:33N 59°19' E 018°10'1 1.1
2015-Jan-21 10:33N 59°19' E 018°07'1 1.0
2015-Jan-21 09:30N 59°19' E 018°10'1 1.0
2015-Jan-21 08:33N 59°19' E 018°08'1 0.9
2015-Jan-21 07:32N 59°19' E 018°10'1 0.9
2015-Jan-21 06:31N 59°19' E 018°08'1 1.0
2015-Jan-21 05:33N 59°19' E 018°10'3 2.3
2015-Jan-21 04:28N 59°20' E 018°05'0 0.0
2015-Jan-21 03:31N 59°20' E 018°05'0 0.0
2015-Jan-21 02:33N 59°20' E 018°05'0 0.0
2015-Jan-21 01:33N 59°20' E 018°05'0 0.0
2015-Jan-21 00:33N 59°20' E 018°05'0 0.0
2015-Jan-20 23:31N 59°20' E 018°05'0 0.0
2015-Jan-20 22:31N 59°20' E 018°05'0 0.0
2015-Jan-20 21:31N 59°20' E 018°05'0 0.0
2015-Jan-20 20:31N 59°20' E 018°05'0 0.0
2015-Jan-20 19:31N 59°20' E 018°05'3 2.7
2015-Jan-20 18:33N 59°19' E 018°10'1 0.8
2015-Jan-20 17:33N 59°19' E 018°08'0 0.4
2015-Jan-20 16:33N 59°19' E 018°09'0 0.2
2015-Jan-20 15:31N 59°19' E 018°09'1 0.6
2015-Jan-20 14:33N 59°19' E 018°07'1 0.9
2015-Jan-20 13:32N 59°19' E 018°09'1 1.0
2015-Jan-20 12:33N 59°19' E 018°07'1 0.8
2015-Jan-20 11:29N 59°19' E 018°09'1 0.9
2015-Jan-20 10:33N 59°19' E 018°08'1 1.0
2015-Jan-20 09:33N 59°19' E 018°10'1 0.8
2015-Jan-20 08:33N 59°19' E 018°08'1 0.8
2015-Jan-20 07:30N 59°19' E 018°10'1 1.1
2015-Jan-20 06:33N 59°19' E 018°07'1 1.0
2015-Jan-20 05:31N 59°19' E 018°10'3 2.6
2015-Jan-20 04:31N 59°20' E 018°05'0 0.0
2015-Jan-20 03:25N 59°20' E 018°05'0 0.0
2015-Jan-20 02:19N 59°20' E 018°05'0 0.0
2015-Jan-20 01:22N 59°20' E 018°05'0 0.0
2015-Jan-20 00:28N 59°20' E 018°05'0 0.0
2015-Jan-19 23:31N 59°20' E 018°05'0 0.0
2015-Jan-19 22:31N 59°20' E 018°05'0 0.0
2015-Jan-19 21:31N 59°20' E 018°05'0 0.0
2015-Jan-19 20:31N 59°20' E 018°05'0 0.0
2015-Jan-19 19:31N 59°20' E 018°05'3 2.6
2015-Jan-19 18:31N 59°19' E 018°10'1 0.7
2015-Jan-19 17:33N 59°19' E 018°08'0 0.3
2015-Jan-19 16:33N 59°19' E 018°09'0 0.2
2015-Jan-19 15:33N 59°19' E 018°09'1 0.8
2015-Jan-19 14:33N 59°19' E 018°07'1 0.8
2015-Jan-19 13:31N 59°19' E 018°09'2 2.4
2015-Jan-19 12:31N 59°20' E 018°05'1 1.3
2015-Jan-19 11:27N 59°19' E 018°06'1 0.8
2015-Jan-19 10:33N 59°19' E 018°07'1 1.1
2015-Jan-19 09:33N 59°19' E 018°10'1 0.9
2015-Jan-19 08:34N 59°19' E 018°08'1 0.9
2015-Jan-19 07:33N 59°19' E 018°10'1 1.1
2015-Jan-19 06:33N 59°19' E 018°07'1 1.1
2015-Jan-19 05:33N 59°19' E 018°10'3 2.5
2015-Jan-19 04:33N 59°20' E 018°05'0 0.0
2015-Jan-19 03:33N 59°20' E 018°05'0 0.0
2015-Jan-19 02:33N 59°20' E 018°05'0 0.0
2015-Jan-19 01:33N 59°20' E 018°05'0 0.0
2015-Jan-19 00:33N 59°20' E 018°05'0 0.0
2015-Jan-18 23:33N 59°20' E 018°05'0 0.0
2015-Jan-18 22:33N 59°20' E 018°05'0 0.0
2015-Jan-18 21:33N 59°20' E 018°05'0 0.0
2015-Jan-18 20:33N 59°20' E 018°05'0 0.0
2015-Jan-18 19:33N 59°20' E 018°05'0 0.0
2015-Jan-18 18:33N 59°20' E 018°05'2 2.4
2015-Jan-18 17:33N 59°20' E 018°09'2 2.4
2015-Jan-18 16:32N 59°20' E 018°05'2 2.4
2015-Jan-18 15:32N 59°20' E 018°09'2 2.5
2015-Jan-18 14:33N 59°20' E 018°05'2 2.5
2015-Jan-18 13:33N 59°21' E 018°09'2 2.3
2015-Jan-18 12:31N 59°20' E 018°05'2 1.6
2015-Jan-18 11:33N 59°19' E 018°07'1 1.0
2015-Jan-18 10:31N 59°19' E 018°09'1 1.2
2015-Jan-18 09:33N 59°19' E 018°07'1 1.1
2015-Jan-18 08:32N 59°19' E 018°09'2 2.4
2015-Jan-18 07:33N 59°20' E 018°05'0 0.0
2015-Jan-18 06:33N 59°20' E 018°05'0 0.0
2015-Jan-18 05:33N 59°20' E 018°05'0 0.0
2015-Jan-18 04:33N 59°20' E 018°05'0 0.0
2015-Jan-18 03:33N 59°20' E 018°05'0 0.0
2015-Jan-18 02:25N 59°20' E 018°05'0 0.0
2015-Jan-18 01:31N 59°20' E 018°05'0 0.0
2015-Jan-18 00:31N 59°20' E 018°05'0 0.0
2015-Jan-17 23:31N 59°20' E 018°05'0 0.0
2015-Jan-17 22:31N 59°20' E 018°05'0 0.0
2015-Jan-17 21:31N 59°20' E 018°05'0 0.0
2015-Jan-17 20:31N 59°20' E 018°05'0 0.0
2015-Jan-17 19:31N 59°20' E 018°05'0 0.0
2015-Jan-17 18:33N 59°20' E 018°05'2 2.4
2015-Jan-17 17:33N 59°20' E 018°09'2 2.4
2015-Jan-17 16:34N 59°20' E 018°05'2 2.3
2015-Jan-17 15:32N 59°20' E 018°09'2 2.5
2015-Jan-17 14:33N 59°20' E 018°05'2 2.4
2015-Jan-17 13:33N 59°21' E 018°09'2 2.3
2015-Jan-17 12:32N 59°20' E 018°05'2 1.6
2015-Jan-17 11:33N 59°19' E 018°07'1 1.1
2015-Jan-17 10:33N 59°19' E 018°09'1 1.0
2015-Jan-17 09:33N 59°19' E 018°07'1 0.9
2015-Jan-17 08:32N 59°19' E 018°09'2 2.3
2015-Jan-17 07:31N 59°20' E 018°05'0 0.0
2015-Jan-17 04:31N 59°20' E 018°05'0 0.0
2015-Jan-17 03:28N 59°20' E 018°05'0 0.0
2015-Jan-17 02:32N 59°20' E 018°05'0 0.0
2015-Jan-17 01:31N 59°20' E 018°05'0 0.0
2015-Jan-17 00:32N 59°20' E 018°05'0 0.0
2015-Jan-16 23:32N 59°20' E 018°05'0 0.0
2015-Jan-16 22:32N 59°20' E 018°05'0 0.0
2015-Jan-16 21:32N 59°20' E 018°05'0 0.0
2015-Jan-16 20:32N 59°20' E 018°05'0 0.0
2015-Jan-16 19:32N 59°20' E 018°05'2 1.9
2015-Jan-16 18:17N 59°21' E 018°09'1 1.9
2015-Jan-16 17:33N 59°19' E 018°09'0 0.1
2015-Jan-16 16:33N 59°19' E 018°09'0 0.4
2015-Jan-16 15:33N 59°19' E 018°09'1 1.0
2015-Jan-16 14:33N 59°19' E 018°07'1 1.1
2015-Jan-16 13:32N 59°19' E 018°10'1 1.1
2015-Jan-16 12:33N 59°19' E 018°07'1 0.9
2015-Jan-16 11:29N 59°19' E 018°09'1 1.0
2015-Jan-16 10:34N 59°19' E 018°07'1 0.8
2015-Jan-16 09:29N 59°19' E 018°09'1 0.7
2015-Jan-16 08:33N 59°19' E 018°08'  

Dump ship's entire track history